地図

経路データ

SID SEASON NUMBER BASIN SUBBASIN NAME ISO_TIME NATURE LAT LON WMO_WIND WMO_PRES WMO_AGENCY TRACK_TYPE DIST2LAND LANDFALL IFLAG USA_AGENCY USA_ATCF_ID USA_LAT USA_LON USA_RECORD USA_STATUS USA_WIND USA_PRES USA_SSHS USA_R34_NE USA_R34_SE USA_R34_SW USA_R34_NW USA_R50_NE USA_R50_SE USA_R50_SW USA_R50_NW USA_R64_NE USA_R64_SE USA_R64_SW USA_R64_NW USA_POCI USA_ROCI USA_RMW USA_EYE TOKYO_LAT TOKYO_LON TOKYO_GRADE TOKYO_WIND TOKYO_PRES TOKYO_R50_DIR TOKYO_R50_LONG TOKYO_R50_SHORT TOKYO_R30_DIR TOKYO_R30_LONG TOKYO_R30_SHORT TOKYO_LAND CMA_LAT CMA_LON CMA_CAT CMA_WIND CMA_PRES HKO_LAT HKO_LON HKO_CAT HKO_WIND HKO_PRES NEWDELHI_LAT NEWDELHI_LON NEWDELHI_GRADE NEWDELHI_WIND NEWDELHI_PRES NEWDELHI_CI NEWDELHI_DP NEWDELHI_POCI REUNION_LAT REUNION_LON REUNION_TYPE REUNION_WIND REUNION_PRES REUNION_TNUM REUNION_CI REUNION_RMW REUNION_R34_NE REUNION_R34_SE REUNION_R34_SW REUNION_R34_NW REUNION_R50_NE REUNION_R50_SE REUNION_R50_SW REUNION_R50_NW REUNION_R64_NE REUNION_R64_SE REUNION_R64_SW REUNION_R64_NW BOM_LAT BOM_LON BOM_TYPE BOM_WIND BOM_PRES BOM_TNUM BOM_CI BOM_RMW BOM_R34_NE BOM_R34_SE BOM_R34_SW BOM_R34_NW BOM_R50_NE BOM_R50_SE BOM_R50_SW BOM_R50_NW BOM_R64_NE BOM_R64_SE BOM_R64_SW BOM_R64_NW BOM_ROCI BOM_POCI BOM_EYE BOM_POS_METHOD BOM_PRES_METHOD NADI_LAT NADI_LON NADI_CAT NADI_WIND NADI_PRES WELLINGTON_LAT WELLINGTON_LON WELLINGTON_WIND WELLINGTON_PRES DS824_LAT DS824_LON DS824_STAGE DS824_WIND DS824_PRES TD9636_LAT TD9636_LON TD9636_STAGE TD9636_WIND TD9636_PRES TD9635_LAT TD9635_LON TD9635_WIND TD9635_PRES TD9635_ROCI NEUMANN_LAT NEUMANN_LON NEUMANN_CLASS NEUMANN_WIND NEUMANN_PRES MLC_LAT MLC_LON MLC_CLASS MLC_WIND MLC_PRES USA_GUST BOM_GUST BOM_GUST_PER REUNION_GUST REUNION_GUST_PER USA_SEAHGT USA_SEARAD_NE USA_SEARAD_SE USA_SEARAD_SW USA_SEARAD_NW STORM_SPEED STORM_DIR
1959039S10096 1959 15 SI WA NOT_NAMED 1959-02-07 16:00:00 NR -10.0000 96.0000 main 967 967 __________O___ -1 -10.0000 96.0000 1 10 0 0
1959039S10096 1959 15 SI WA NOT_NAMED 1959-02-07 18:00:00 TS -10.0018 95.9919 main 967 967 O________OP___ jtwc_sh SH161959 -10.0000 96.0000 10 -1 -10.0000 96.0000 TC 10 -10.0035 95.9839 1 10 0 0
1959039S10096 1959 15 SI WA NOT_NAMED 1959-02-07 21:00:00 TS -9.98555 95.9882 main 967 967 P________PP___ SH161959 -9.95500 96.0050 10 -1 -9.95500 96.0050 TC 10 -10.0263 95.9657 1 10 0 205
1959039S10096 1959 15 SI WA NOT_NAMED 1959-02-08 00:00:00 TS -10.0375 95.9853 main 967 967 O________OP___ jtwc_sh SH161959 -10.0000 96.0000 10 -1 -10.0000 96.0000 TC 10 -10.0938 95.9631 1 10 1 196
1959039S10096 1959 15 SI WA NOT_NAMED 1959-02-08 01:00:00 TS -10.0708 95.9867 1002 bom main 975 975 P_____O__PP___ SH161959 -10.0495 95.9948 10 -1 -10.0000 96.0000 1002 -10.0495 95.9948 TC 10 -10.1309 95.9673 1 10 3 171
1959039S10096 1959 15 SI WA NOT_NAMED 1959-02-08 03:00:00 TS -10.2080 95.9859 main 982 982 P_____P__PP___ SH161959 -10.1975 95.9851 10 -1 -10.2000 95.9901 1002 -10.1975 95.9851 TC 10 -10.2330 95.9854 1 10 5 0
1959039S10096 1959 15 SI WA NOT_NAMED 1959-02-08 04:00:00 TS -10.2949 95.9916 1002 bom main 990 990 P_____O__PO___ SH161959 -10.2904 95.9843 10 -1 -10.3000 96.0000 1002 -10.2904 95.9843 TC 10 -10.3000 96.0000 1 10 6 171
1959039S10096 1959 15 SI WA NOT_NAMED 1959-02-08 06:00:00 TS -10.4923 96.0298 main 1006 1006 O_____P__OP___ jtwc_sh SH161959 -10.5000 96.0000 10 -1 -10.5000 96.0612 1002 -10.5000 96.0000 TC 10 -10.4675 96.0406 1 10 6 166
1959039S10096 1959 15 SI WA NOT_NAMED 1959-02-08 07:00:00 TS -10.5977 96.0601 1002 bom main 1007 1007 P_____O__PP___ SH161959 -10.6079 96.0245 10 -1 -10.6000 96.1000 1002 -10.6079 96.0245 TC 10 -10.5653 96.0654 1 10 7 165
1959039S10096 1959 15 SI WA NOT_NAMED 1959-02-08 09:00:00 TS -10.8213 96.1217 main 1023 1023 P_____P__PP___ SH161959 -10.8425 96.0924 10 -1 -10.7974 96.1692 1002 -10.8425 96.0924 TC 10 -10.7819 96.1207 1 10 7 165
1959039S10096 1959 15 SI WA NOT_NAMED 1959-02-08 10:00:00 TS -10.9374 96.1523 1002 bom main 1024 1024 P_____O__PP___ SH161959 -10.9637 96.1303 10 -1 -10.9000 96.2000 1002 -10.9637 96.1303 TC 10 -10.8976 96.1497 1 10 7 166
1959039S10096 1959 15 SI WA NOT_NAMED 1959-02-08 12:00:00 TS -11.1714 96.2075 main 1050 1050 O_____P__OP___ jtwc_sh SH161959 -11.2000 96.2000 10 -1 -11.1426 96.2500 1002 -11.2000 96.2000 TC 10 -11.1361 96.2072 1 10 7 169
1959039S10096 1959 15 SI WA NOT_NAMED 1959-02-08 15:00:00 TS -11.4982 96.2676 main 1069 1069 P_____P__PP___ SH161959 -11.5150 96.2650 10 -1 -11.5030 96.2938 1002 -11.5150 96.2650 TC 10 -11.4894 96.2813 1 10 7 171
1959039S10096 1959 15 SI WA NOT_NAMED 1959-02-08 16:00:00 TS -11.5960 96.2827 1002 bom main 1077 1077 P_____O__PO___ SH161959 -11.6133 96.2800 10 -1 -11.6000 96.3000 1002 -11.6133 96.2800 TC 10 -11.6000 96.3000 1 10 5 172
1959039S10096 1959 15 SI WA NOT_NAMED 1959-02-08 18:00:00 TS -11.7640 96.3047 main 1093 1093 O_____P__OP___ jtwc_sh SH161959 -11.8000 96.3000 10 -1 -11.7386 96.2934 1002 -11.8000 96.3000 TC 10 -11.7811 96.3302 1 12 5 173
1959039S10096 1959 15 SI WA NOT_NAMED 1959-02-08 19:00:00 TS -11.8414 96.3159 1002 bom main 1093 1093 P_____O__PP___ SH161959 -11.8890 96.3057 11 -1 -11.8000 96.3000 1002 -11.8890 96.3057 TC 11 -11.8675 96.3419 1 13 5 171
1959039S10096 1959 15 SI WA NOT_NAMED 1959-02-08 21:00:00 TS -11.9919 96.3431 main 1110 1103 P_____P__PP___ SH161959 -12.0575 96.3075 15 -1 -11.9333 96.3691 1002 -12.0575 96.3075 TC 15 -12.0339 96.3569 1 16 5 172
1959039S10096 1959 15 SI WA NOT_NAMED 1959-02-08 22:00:00 TS -12.0665 96.3525 1002 bom main 1111 1111 P_____O__PP___ SH161959 -12.1388 96.3055 16 -1 -12.0000 96.4000 1002 -12.1388 96.3055 TC 16 -12.1149 96.3599 1 17 5 176
1959039S10096 1959 15 SI WA NOT_NAMED 1959-02-09 00:00:00 TS -12.2185 96.3538 main 1120 1120 O_____P__OP___ jtwc_sh SH161959 -12.3000 96.3000 20 -1 -12.1175 96.4133 1002 -12.3000 96.3000 TC 20 -12.2750 96.3557 1 20 5 184
1959039S10096 1959 15 SI WA NOT_NAMED 1959-02-09 01:00:00 TS -12.3066 96.3510 1002 bom main 1129 1129 P_____O__PP___ SH161959 -12.3833 96.3105 20 -1 -12.2000 96.4000 1002 -12.3833 96.3105 TC 20 -12.3549 96.3480 1 21 6 182
1959039S10096 1959 15 SI WA NOT_NAMED 1959-02-09 03:00:00 TS -12.5090 96.3312 main 1153 1153 P_____P__PP___ SH161959 -12.5500 96.3299 22 -1 -12.4558 96.3467 1002 -12.5500 96.3299 TC 22 -12.5170 96.3204 1 23 6 186
1959039S10096 1959 15 SI WA NOT_NAMED 1959-02-09 04:00:00 TS -12.6161 96.3106 1002 bom main 1161 1161 P_____O__PO___ SH161959 -12.6333 96.3315 23 -1 -12.6000 96.3000 1002 -12.6333 96.3315 TC 23 -12.6000 96.3000 1 25 7 197
1959039S10096 1959 15 SI WA NOT_NAMED 1959-02-09 06:00:00 TS -12.8346 96.2331 main 1186 1194 O_____P__OP___ jtwc_sh SH161959 -12.8000 96.3000 25 -1 -12.8746 96.1642 1001 -12.8000 96.3000 TC 25 -12.7986 96.2010 1 24 7 204
1959039S10096 1959 15 SI WA NOT_NAMED 1959-02-09 07:00:00 TS -12.9466 96.1661 1001 bom main 1194 1194 P_____O__PP___ SH161959 -12.8807 96.2484 25 -1 -13.0000 96.1000 1001 -12.8807 96.2484 TC 25 -12.9003 96.1424 1 23 8 212
1959039S10096 1959 15 SI WA NOT_NAMED 1959-02-09 09:00:00 TS -13.1688 96.0136 main 1234 1234 P_____P__PP___ SH161959 -13.0426 96.1076 25 -1 -13.2113 96.0272 1001 -13.0426 96.1076 TC 25 -13.1033 96.0198 1 22 8 214
1959039S10096 1959 15 SI WA NOT_NAMED 1959-02-09 10:00:00 TS -13.2785 95.9329 1001 bom main 1250 1250 P_____O__PP___ SH161959 -13.1255 96.0315 25 -1 -13.3000 96.0000 1001 -13.1255 96.0315 TC 25 -13.2025 95.9608 1 22 8 215
1959039S10096 1959 15 SI WA NOT_NAMED 1959-02-09 12:00:00 TS -13.4908 95.7796 main 1273 1273 O_____P__OP___ jtwc_sh SH161959 -13.3000 95.9000 25 -1 -13.4360 95.9427 1001 -13.3000 95.9000 TC 25 -13.3910 95.8602 1 21 8 211
1959039S10096 1959 15 SI WA NOT_NAMED 1959-02-09 15:00:00 TS -13.8126 95.6025 main 1310 1310 P_____P__PP___ SH161959 -13.6299 95.7750 22 -1 -13.6186 95.8442 1001 -13.6299 95.7750 TC 22 -13.6339 95.7910 1 20 7 206
1959039S10096 1959 15 SI WA NOT_NAMED 1959-02-09 16:00:00 TS -13.9126 95.5664 1001 bom main 1317 1317 P_____O__PO___ SH161959 -13.7340 95.7618 21 -1 -13.7000 95.8000 1001 -13.7340 95.7618 TC 21 -13.7000 95.8000 1 20 6 190
1959039S10096 1959 15 SI WA NOT_NAMED 1959-02-09 18:00:00 TS -14.1017 95.5386 main 1339 1337 O_____P__OP___ jtwc_sh SH161959 -13.9000 95.8000 20 -1 -13.9371 95.6668 1001 -13.9000 95.8000 TC 20 -13.8530 95.8627 1 18 5 167
1959039S10096 1959 15 SI WA NOT_NAMED 1959-02-09 21:00:00 TS -14.2891 95.6442 main 1344 1335 P_____P__PP___ SH161959 -14.0099 96.0174 15 -1 -14.3583 95.4554 1001 -14.0099 96.0174 TC 15 -14.0334 96.0633 1 15 4 140
1959039S10096 1959 15 SI WA NOT_NAMED 1959-02-09 22:00:00 TS -14.3217 95.7260 1002 bom main 1335 1325 P_____O__PP___ SH161959 -14.0175 96.1303 13 -1 -14.5000 95.4000 1002 -14.0175 96.1303 TC 13 -14.0740 96.1578 1 15 6 104
1959039S10096 1959 15 SI WA NOT_NAMED 1959-02-10 00:00:00 TS -14.3582 95.9331 main 1325 1301 O_____P__OP___ jtwc_sh SH161959 -14.0000 96.4000 10 -1 -14.8750 95.1786 1002 -14.0000 96.4000 TC 10 -14.1163 96.3870 1 13 8 91
1959039S10096 1959 15 SI WA NOT_NAMED 1959-02-10 01:00:00 TS -14.3265 96.1179 1002 bom main 1301 1237 P_____O__PP___ SH161959 -14.0125 96.5226 10 -1 -14.9000 95.3000 1002 -14.0125 96.5226 TC 10 -14.1147 96.5213 1 12 16 71
1959039S10096 1959 15 SI WA NOT_NAMED 1959-02-10 03:00:00 TS -14.1064 96.6966 main 1237 1206 P_____P__PP___ SH161959 -14.0046 96.8093 10 -1 -14.3791 96.3442 1002 -14.0046 96.8093 TC 10 -14.0582 96.8280 1 10 19 67
1959039S10096 1959 15 SI WA NOT_NAMED 1959-02-10 04:00:00 TS -13.9504 97.0306 1003 bom main 1206 1119 P_____O__PO___ SH161959 -13.9694 96.9810 10 -1 -14.0000 97.0000 1003 -13.9694 96.9810 TC 10 -14.0000 97.0000 1 10 22 62
1959039S10096 1959 15 SI WA NOT_NAMED 1959-02-10 06:00:00 TS -13.5917 97.6991 main 1119 1080 O_____P__OP___ jtwc_sh SH161959 -13.8000 97.4000 10 -1 -13.3133 98.1207 1003 -13.8000 97.4000 TC 10 -13.7451 97.4746 1 10 23 60
1959039S10096 1959 15 SI WA NOT_NAMED 1959-02-10 07:00:00 TS -13.3851 98.0344 1003 bom main 1080 994 P_____O__PP___ SH161959 -13.6204 97.6919 10 -1 -13.0000 98.6000 1003 -13.6204 97.6919 TC 10 -13.5840 97.7376 1 10 22 56
1959039S10096 1959 15 SI WA NOT_NAMED 1959-02-10 09:00:00 TS -12.9658 98.6506 main 994 901 P_____P__PP___ SH161959 -13.1585 98.3469 10 -1 -12.5264 99.2561 1003 -13.1585 98.3469 TC 10 -13.2213 98.2821 1 10 19 53
1959039S10096 1959 15 SI WA NOT_NAMED 1959-02-10 12:00:00 TS -12.4412 99.3376 main 901 854 O_____P__OP___ jtwc_sh SH161959 -12.5000 99.2000 10 -1 -12.1393 99.6713 1003 -12.5000 99.2000 TC 10 -12.6576 99.0469 1 10 13 52
1959039S10096 1959 15 SI WA NOT_NAMED 1959-02-10 15:00:00 TS -12.1907 99.6528 main 854 854 P_____P__PP___ SH161959 -12.2295 99.5866 10 -1 -12.0680 99.7111 1003 -12.2295 99.5866 TC 10 -12.2021 99.5951 1 10 7 51
1959039S10096 1959 15 SI WA NOT_NAMED 1959-02-10 16:00:00 TS -12.1590 99.6892 1004 bom main 854 854 P_____O__PO___ SH161959 -12.1978 99.6289 10 -1 -12.1000 99.7000 1004 -12.1978 99.6289 TC 10 -12.1000 99.7000 1 10 0 0
1959039S10096 1959 15 SI WA NOT_NAMED 1959-02-10 18:00:00 TS -12.1776 99.6726 main 854 854 O_____P__OP___ jtwc_sh SH161959 -12.2000 99.6000 10 -1 -12.2287 99.7526 1004 -12.2000 99.6000 TC 10 -12.0592 99.7102 1 10 2 235
1959039S10096 1959 15 SI WA NOT_NAMED 1959-02-10 19:00:00 TS -12.2047 99.6183 1005 bom main 862 862 P_____O__PP___ SH161959 -12.2157 99.5514 10 -1 -12.3000 99.7000 1005 -12.2157 99.5514 TC 10 -12.0736 99.6596 1 10 6 248
1959039S10096 1959 15 SI WA NOT_NAMED 1959-02-10 21:00:00 TS -12.2895 99.3872 main 885 885 P_____P__PP___ SH161959 -12.3050 99.3475 10 -1 -12.3722 99.3859 1005 -12.3050 99.3475 TC 10 -12.1568 99.4686 1 10 8 249
1959039S10096 1959 15 SI WA NOT_NAMED 1959-02-10 22:00:00 TS -12.3448 99.2372 1005 bom main 901 901 P_____O__PP___ SH161959 -12.3674 99.2089 10 -1 -12.4000 99.2000 1005 -12.3674 99.2089 TC 10 -12.2194 99.3365 1 10 10 248
1959039S10096 1959 15 SI WA NOT_NAMED 1959-02-11 00:00:00 TS -12.4661 98.9313 main 940 940 O_____P__OP___ jtwc_sh SH161959 -12.5000 98.9000 10 -1 -12.4587 98.9358 1005 -12.5000 98.9000 TC 10 -12.3718 99.0205 1 10 10 248
1959039S10096 1959 15 SI WA NOT_NAMED 1959-02-11 01:00:00 TS -12.5221 98.7848 1005 bom main 948 948 P_____O__PP___ SH161959 -12.5526 98.7614 10 -1 -12.5000 98.8000 1005 -12.5526 98.7614 TC 10 -12.4555 98.8450 1 10 10 249
1959039S10096 1959 15 SI WA NOT_NAMED 1959-02-11 03:00:00 TS -12.6431 98.4666 main 980 996 P_____P__PP___ SH161959 -12.6575 98.4650 10 -1 -12.6279 98.4642 1005 -12.6575 98.4650 TC 10 -12.6226 98.4805 1 10 10 249
1959039S10096 1959 15 SI WA NOT_NAMED 1959-02-11 04:00:00 TS -12.7031 98.3056 1006 bom main 1004 1004 P_____O__PO___ SH161959 -12.7079 98.3109 10 -1 -12.7000 98.3000 1006 -12.7079 98.3109 TC 10 -12.7000 98.3000 1 10 10 250
1959039S10096 1959 15 SI WA NOT_NAMED 1959-02-11 06:00:00 TS -12.8139 97.9974 main 1036 1036 O_____P__OP___ jtwc_sh SH161959 -12.8000 98.0000 10 -1 -12.8371 98.0294 1006 -12.8000 98.0000 TC 10 -12.8326 97.9576 1 10 10 250
1959039S10096 1959 15 SI WA NOT_NAMED 1959-02-11 07:00:00 TS -12.8664 97.8472 1006 bom main 1060 1060 P_____O__PP___ SH161959 -12.8402 97.8466 10 -1 -12.9000 97.9000 1006 -12.8402 97.8466 TC 10 -12.8885 97.7953 1 10 9 252
1959039S10096 1959 15 SI WA NOT_NAMED 1959-02-11 09:00:00 TS -12.9578 97.5454 main 1092 1092 P_____P__PP___ SH161959 -12.9101 97.5450 10 -1 -12.9878 97.6077 1006 -12.9101 97.5450 TC 10 -12.9829 97.4858 1 10 9 254
1959039S10096 1959 15 SI WA NOT_NAMED 1959-02-11 12:00:00 TS -13.0741 97.0972 main 1133 1133 O_____P__OP___ jtwc_sh SH161959 -13.0000 97.1000 10 -1 -13.0719 97.1381 1006 -13.0000 97.1000 TC 10 -13.0909 97.0506 1 10 9 255
1959039S10096 1959 15 SI WA NOT_NAMED 1959-02-11 15:00:00 TS -13.1988 96.6463 main 1183 1183 ______P___P___ SH161959 -1 -13.1587 96.6575 1006 TC -13.1745 96.6362 1 10 9 254
1959039S10096 1959 15 SI WA NOT_NAMED 1959-02-11 16:00:00 TS -13.2449 96.4958 1007 bom main 1192 1192 ______O___O___ SH161959 -1 -13.2000 96.5000 1007 TC -13.2000 96.5000 1 10 9 250
1959039S10096 1959 15 SI WA NOT_NAMED 1959-02-11 18:00:00 TS -13.3614 96.1913 main 1231 1231 ______P_______ -1 -13.3216 96.1902 1007 1 9 248
1959039S10096 1959 15 SI WA NOT_NAMED 1959-02-11 21:00:00 TS -13.5390 95.7434 main 1281 1281 ______P_______ -1 -13.5300 95.7415 1007 1 9 247
1959039S10096 1959 15 SI WA NOT_NAMED 1959-02-11 22:00:00 TS -13.6003 95.5989 1008 bom main 1296 1296 ______O_______ -1 -13.6000 95.6000 1008 1 9 246
1959039S10096 1959 15 SI WA NOT_NAMED 1959-02-12 00:00:00 TS -13.7229 95.3206 main 1325 1325 ______P_______ -1 -13.7344 95.3309 1008 1 9 243
1959039S10096 1959 15 SI WA NOT_NAMED 1959-02-12 01:00:00 NR -13.8000 95.2000 1008 bom main 1341 ______O_______ -1 -13.8000 95.2000 1008 1 8 237

IBTrACS Databaseについて

本データベースは、米国NOAAが公開する1842年以降の世界の熱帯低気圧のベストトラックデータアーカイブInternational Best Track Archive for Climate Stewardship (IBTrACS)を、ウェブで閲覧しやすい形式に変換したものです。

最終更新日:2021-10-19